Time;durP1;ratioP1;P1;durP2;ratioP2;P2;SDS_P1;SDS_P2;PMS_P1;PMS_P2;Temp;Humidity;BMP_temperature;BMP_pressure;BME280_temperature;BME280_humidity;BME280_pressure;Samples;Min_cycle;Max_cycle;Signal;HPM_P1;HPM_P2
2022/01/10 00:01:42;;;;;;;0.40;0.40;;;4.80;99.90;;;;;;4441387;32;20074;-68
2022/01/10 00:04:08;;;;;;;0.40;0.40;;;4.80;99.90;;;;;;4439701;32;20151;-69
2022/01/10 00:06:35;;;;;;;0.50;0.50;;;4.80;99.90;;;;;;4439096;32;20069;-69
2022/01/10 00:09:01;;;;;;;0.50;0.50;;;4.80;99.90;;;;;;4440274;32;20064;-68
2022/01/10 00:11:26;;;;;;;0.40;0.40;;;4.80;99.90;;;;;;4440805;32;20077;-69
2022/01/10 00:13:52;;;;;;;4.22;1.12;;;4.80;99.90;;;;;;4439426;32;20077;-68
2022/01/10 00:16:18;;;;;;;3.22;1.37;;;4.80;99.90;;;;;;4439911;32;20073;-68
2022/01/10 00:18:43;;;;;;;1.90;1.12;;;4.80;99.90;;;;;;4441992;32;20073;-68
2022/01/10 00:21:08;;;;;;;0.73;0.65;;;4.90;99.90;;;;;;4443034;32;20069;-68
2022/01/10 00:23:35;;;;;;;5.15;1.37;;;4.90;99.90;;;;;;4441901;32;20077;-68
2022/01/10 00:26:01;;;;;;;0.85;0.77;;;4.90;99.90;;;;;;4439574;32;20073;-68
2022/01/10 00:28:26;;;;;;;0.85;0.85;;;4.90;99.90;;;;;;4442682;32;20065;-68
2022/01/10 00:30:52;;;;;;;2.47;1.40;;;4.90;99.90;;;;;;4442734;32;20119;-68
2022/01/10 00:33:17;;;;;;;0.82;0.82;;;5.00;99.90;;;;;;4443191;32;20102;-68
2022/01/10 00:35:43;;;;;;;4.30;2.25;;;4.90;99.90;;;;;;4443193;32;20567;-67
2022/01/10 00:38:08;;;;;;;0.50;0.50;;;4.90;99.90;;;;;;4443052;32;20062;-68
2022/01/10 00:40:35;;;;;;;0.62;0.52;;;4.90;99.90;;;;;;4444786;32;20077;-68
2022/01/10 00:43:00;;;;;;;0.68;0.68;;;4.90;99.90;;;;;;4444634;32;20126;-67
2022/01/10 00:45:27;;;;;;;0.35;0.35;;;4.90;99.90;;;;;;4445026;32;20465;-68
2022/01/10 00:47:55;;;;;;;0.60;0.60;;;4.90;99.90;;;;;;4444545;32;20098;-67
2022/01/10 00:50:21;;;;;;;6.03;1.50;;;4.90;99.90;;;;;;4444740;32;20053;-68
2022/01/10 00:52:46;;;;;;;1.08;0.65;;;4.90;99.90;;;;;;4444457;32;20077;-67
2022/01/10 00:55:12;;;;;;;4.03;1.02;;;4.90;99.90;;;;;;4438247;32;20132;-68
2022/01/10 00:57:38;;;;;;;0.50;0.50;;;4.90;99.90;;;;;;4442572;32;20077;-68
2022/01/10 01:00:06;;;;;;;0.40;0.40;;;4.90;99.90;;;;;;4436133;32;20403;-67
2022/01/10 01:02:32;;;;;;;0.55;0.55;;;4.90;99.90;;;;;;4438041;32;20089;-68
2022/01/10 01:05:01;;;;;;;0.65;0.50;;;4.90;99.90;;;;;;4435007;32;20058;-68
2022/01/10 01:07:26;;;;;;;0.40;0.40;;;4.90;99.90;;;;;;4444021;32;20140;-67
2022/01/10 01:10:03;;;;;;;6.95;1.35;;;4.90;99.90;;;;;;4441791;32;20112;-67
2022/01/10 01:12:42;;;;;;;2.37;0.93;;;4.90;99.90;;;;;;4444945;32;20068;-67
2022/01/10 01:15:19;;;;;;;4.43;0.80;;;4.90;99.90;;;;;;4440128;32;20073;-67
2022/01/10 01:17:59;;;;;;;0.30;0.30;;;4.80;99.90;;;;;;4445494;32;20112;-67
2022/01/10 01:20:31;;;;;;;0.75;0.75;;;4.80;99.90;;;;;;4445409;32;20098;-67
2022/01/10 01:24:03;;;;;;;0.62;0.62;;;4.80;99.90;;;;;;4443584;32;20520;-67
2022/01/10 01:25:42;;;;;;;1.05;1.00;;;4.90;99.90;;;;;;4437499;32;20123;-67
2022/01/10 01:28:07;;;;;;;5.00;0.95;;;4.90;99.90;;;;;;4443084;32;20073;-68
2022/01/10 01:30:33;;;;;;;1.67;0.80;;;4.80;99.90;;;;;;4441474;32;20465;-67
2022/01/10 01:32:59;;;;;;;0.47;0.47;;;4.90;99.90;;;;;;4443938;32;20105;-67
2022/01/10 01:35:25;;;;;;;0.40;0.40;;;4.80;99.90;;;;;;4441491;32;20581;-67
2022/01/10 01:37:51;;;;;;;2.25;1.08;;;4.90;99.90;;;;;;4432865;32;20537;-67
2022/01/10 01:40:19;;;;;;;1.02;1.02;;;4.90;99.90;;;;;;4433359;32;20088;-68
2022/01/10 01:42:44;;;;;;;1.08;0.80;;;4.90;99.90;;;;;;4439521;32;20064;-67
2022/01/10 01:45:12;;;;;;;0.40;0.40;;;4.90;99.90;;;;;;4442826;32;20061;-67
2022/01/10 01:47:39;;;;;;;0.50;0.50;;;4.90;99.90;;;;;;4442240;32;20123;-67
2022/01/10 01:50:07;;;;;;;0.55;0.55;;;4.90;99.90;;;;;;4437458;32;20077;-67
2022/01/10 01:52:33;;;;;;;3.22;1.40;;;4.90;99.90;;;;;;4441081;32;20073;-68
2022/01/10 01:54:59;;;;;;;3.30;1.90;;;4.90;99.90;;;;;;4443464;32;20068;-68
2022/01/10 01:57:25;;;;;;;1.37;1.02;;;4.90;99.90;;;;;;4443274;32;20070;-67
2022/01/10 01:59:51;;;;;;;0.75;0.73;;;4.90;99.90;;;;;;4442543;32;20066;-68
2022/01/10 02:02:17;;;;;;;1.85;1.08;;;4.90;99.90;;;;;;4442219;32;20077;-67
2022/01/10 02:04:42;;;;;;;10.45;1.75;;;4.90;99.90;;;;;;4442109;32;20130;-68
2022/01/10 02:07:08;;;;;;;1.02;0.93;;;5.00;99.90;;;;;;4442901;32;20907;-68
2022/01/10 02:09:34;;;;;;;1.55;1.02;;;5.00;99.90;;;;;;4442703;32;20509;-68
2022/01/10 02:11:59;;;;;;;3.03;0.90;;;5.00;99.90;;;;;;4442486;32;20069;-68
2022/01/10 02:14:25;;;;;;;2.92;1.62;;;5.00;99.90;;;;;;4445805;32;20128;-68
2022/01/10 02:16:57;;;;;;;3.92;0.68;;;5.00;99.90;;;;;;4442375;32;20145;-68
2022/01/10 02:19:24;;;;;;;4.03;1.23;;;5.00;99.90;;;;;;4442340;32;20065;-68
2022/01/10 02:21:50;;;;;;;0.75;0.75;;;5.10;99.90;;;;;;4441523;32;20123;-67
2022/01/10 02:24:15;;;;;;;0.43;0.43;;;5.00;99.90;;;;;;4442971;32;20072;-68
2022/01/10 02:26:48;;;;;;;2.20;0.90;;;5.00;99.90;;;;;;4441802;32;20073;-68
2022/01/10 02:29:13;;;;;;;0.50;0.50;;;5.00;99.90;;;;;;4439797;32;20581;-68
2022/01/10 02:31:40;;;;;;;0.82;0.82;;;5.00;99.90;;;;;;4442425;32;20081;-68
2022/01/10 02:34:06;;;;;;;0.30;0.30;;;4.90;99.90;;;;;;4444288;32;20061;-68
2022/01/10 02:36:32;;;;;;;4.22;0.88;;;4.90;99.90;;;;;;4443015;32;20124;-68
2022/01/10 02:39:00;;;;;;;0.40;0.40;;;5.00;99.90;;;;;;4442481;32;20539;-68
2022/01/10 02:41:29;;;;;;;1.55;0.95;;;5.00;99.90;;;;;;4449529;32;20472;-68
2022/01/10 02:43:56;;;;;;;0.60;0.60;;;5.10;99.90;;;;;;4441704;32;20064;-68
2022/01/10 02:46:22;;;;;;;71.82;1.85;;;5.00;99.90;;;;;;4442201;32;20085;-68
2022/01/10 02:48:48;;;;;;;20.77;0.88;;;5.00;99.90;;;;;;4443053;32;20077;-68
2022/01/10 02:51:14;;;;;;;1.17;0.50;;;5.00;99.90;;;;;;4441749;32;20073;-68
2022/01/10 02:53:39;;;;;;;0.40;0.40;;;5.00;99.90;;;;;;4441789;32;20143;-68
2022/01/10 02:56:05;;;;;;;0.30;0.30;;;5.00;99.90;;;;;;4439924;32;20086;-68
2022/01/10 02:58:30;;;;;;;0.68;0.60;;;5.10;99.90;;;;;;4439420;32;20513;-68
2022/01/10 03:00:56;;;;;;;0.65;0.65;;;5.00;99.90;;;;;;4442670;32;20181;-68
2022/01/10 03:03:22;;;;;;;0.40;0.40;;;5.00;99.90;;;;;;4443005;32;20085;-68
2022/01/10 03:05:47;;;;;;;0.30;0.30;;;5.10;99.90;;;;;;4442473;32;20110;-68
2022/01/10 03:08:13;;;;;;;0.50;0.50;;;5.00;99.90;;;;;;4442909;32;20081;-68
2022/01/10 03:10:38;;;;;;;0.25;0.25;;;5.10;99.90;;;;;;4430444;32;20073;-68
2022/01/10 03:13:04;;;;;;;2.25;0.50;;;5.00;99.90;;;;;;4436782;32;20088;-68
2022/01/10 03:15:29;;;;;;;0.60;0.60;;;5.10;99.90;;;;;;4442796;32;20312;-68
2022/01/10 03:17:55;;;;;;;0.65;0.65;;;5.00;99.90;;;;;;4443566;32;20093;-68
2022/01/10 03:20:23;;;;;;;2.62;1.08;;;5.10;99.90;;;;;;4440735;32;20571;-68
2022/01/10 03:22:49;;;;;;;1.12;0.98;;;5.00;99.90;;;;;;4436257;32;20073;-68
2022/01/10 03:25:15;;;;;;;0.40;0.40;;;5.00;99.90;;;;;;4437415;32;20384;-68
2022/01/10 03:27:41;;;;;;;0.45;0.45;;;5.00;99.90;;;;;;4440274;32;20125;-68
2022/01/10 03:30:07;;;;;;;0.50;0.50;;;5.00;99.90;;;;;;4440803;32;20065;-68
2022/01/10 03:32:33;;;;;;;0.30;0.30;;;5.00;99.90;;;;;;4440503;32;20068;-68
2022/01/10 03:34:58;;;;;;;3.05;1.25;;;5.00;99.90;;;;;;4442254;32;20574;-68
2022/01/10 03:37:25;;;;;;;0.73;0.73;;;5.00;99.90;;;;;;4441581;32;20077;-67
2022/01/10 03:39:51;;;;;;;0.65;0.65;;;5.00;99.90;;;;;;4440348;32;20077;-67
2022/01/10 03:42:16;;;;;;;0.65;0.65;;;5.00;99.90;;;;;;4434068;32;20121;-67
2022/01/10 03:44:42;;;;;;;0.88;0.82;;;5.00;99.90;;;;;;4447331;32;20093;-67
2022/01/10 03:47:09;;;;;;;0.55;0.55;;;5.00;99.90;;;;;;4441926;32;20156;-68
2022/01/10 03:49:35;;;;;;;0.40;0.40;;;5.00;99.90;;;;;;4440646;32;20116;-67
2022/01/10 03:52:00;;;;;;;1.02;0.90;;;5.00;99.90;;;;;;4440276;32;20093;-67
2022/01/10 03:54:26;;;;;;;0.82;0.82;;;5.00;99.90;;;;;;4441217;32;20080;-67
2022/01/10 03:56:51;;;;;;;0.55;0.55;;;4.90;99.90;;;;;;4441896;32;20107;-68
2022/01/10 03:59:17;;;;;;;5.62;1.48;;;5.00;99.90;;;;;;4444005;32;20107;-67
2022/01/10 04:01:42;;;;;;;2.42;1.08;;;5.00;99.90;;;;;;4441205;32;20423;-67
2022/01/10 04:04:08;;;;;;;1.50;1.08;;;5.00;99.90;;;;;;4442539;32;20497;-67
2022/01/10 04:06:34;;;;;;;1.48;1.37;;;5.00;99.90;;;;;;4442530;32;20123;-67
2022/01/10 04:09:00;;;;;;;4.20;0.80;;;4.90;99.90;;;;;;4440474;32;20076;-67
2022/01/10 04:11:25;;;;;;;0.85;0.57;;;4.90;99.90;;;;;;4440897;32;20776;-67
2022/01/10 04:13:51;;;;;;;0.45;0.45;;;4.90;99.90;;;;;;4443806;32;20065;-67
2022/01/10 04:16:17;;;;;;;5.55;1.60;;;5.00;99.90;;;;;;4442407;32;21385;-68
2022/01/10 04:18:42;;;;;;;0.60;0.60;;;4.90;99.90;;;;;;4433099;32;20121;-67
2022/01/10 04:21:08;;;;;;;0.30;0.30;;;4.90;99.90;;;;;;4443200;32;20061;-67
2022/01/10 04:23:34;;;;;;;0.55;0.50;;;4.90;99.90;;;;;;4443288;32;20526;-67
2022/01/10 04:26:00;;;;;;;0.40;0.40;;;4.80;99.90;;;;;;4441256;32;20061;-67
2022/01/10 04:28:25;;;;;;;0.62;0.62;;;4.90;99.90;;;;;;4441667;32;20101;-67
2022/01/10 04:30:51;;;;;;;0.45;0.45;;;4.80;99.90;;;;;;4440751;32;20537;-68
2022/01/10 04:33:18;;;;;;;0.40;0.40;;;4.90;99.90;;;;;;4439409;32;138043;-68
2022/01/10 04:35:45;;;;;;;5.15;1.98;;;5.00;99.90;;;;;;4442171;32;20525;-68
2022/01/10 04:38:11;;;;;;;1.45;0.60;;;5.00;99.90;;;;;;4443340;32;20206;-68
2022/01/10 04:40:37;;;;;;;0.50;0.50;;;5.00;99.90;;;;;;4441240;32;20080;-68
2022/01/10 04:43:02;;;;;;;6.40;1.67;;;5.00;99.90;;;;;;4428022;32;20244;-67
2022/01/10 04:45:28;;;;;;;1.12;0.90;;;4.90;99.90;;;;;;4444517;32;20066;-68
2022/01/10 04:47:54;;;;;;;0.55;0.55;;;4.90;99.90;;;;;;4435070;32;20120;-68
2022/01/10 04:52:47;;;;;;;4.03;1.10;;;4.90;99.90;;;;;;4441572;32;20158;-69
2022/01/10 04:55:14;;;;;;;0.50;0.50;;;5.00;99.90;;;;;;4437501;32;20061;-68
2022/01/10 04:57:40;;;;;;;0.40;0.40;;;5.00;99.90;;;;;;4440624;32;20077;-69
2022/01/10 05:00:09;;;;;;;0.43;0.43;;;4.90;99.90;;;;;;4440561;32;20517;-68
2022/01/10 05:02:35;;;;;;;10.95;2.62;;;5.00;99.90;;;;;;4440629;32;20123;-68
2022/01/10 05:05:01;;;;;;;0.60;0.60;;;4.80;99.90;;;;;;4442030;32;20263;-69
2022/01/10 05:07:26;;;;;;;5.40;1.90;;;4.80;99.90;;;;;;4444582;32;20089;-68
2022/01/10 05:09:51;;;;;;;0.35;0.35;;;4.90;99.90;;;;;;4435797;32;20076;-68
2022/01/10 05:12:17;;;;;;;12.40;1.15;;;4.90;99.90;;;;;;4443638;32;20091;-68
2022/01/10 05:14:43;;;;;;;0.50;0.50;;;4.90;99.90;;;;;;4436783;32;20092;-68
2022/01/10 05:17:10;;;;;;;0.88;0.65;;;4.90;99.90;;;;;;4442257;32;20061;-69
2022/01/10 05:19:35;;;;;;;0.28;0.28;;;4.90;99.90;;;;;;4445609;32;20080;-68
2022/01/10 05:22:03;;;;;;;2.05;0.80;;;4.90;99.90;;;;;;4436279;32;20439;-68
2022/01/10 05:24:29;;;;;;;1.15;1.05;;;4.90;99.90;;;;;;4439982;32;20085;-69
2022/01/10 05:26:57;;;;;;;0.50;0.50;;;4.90;99.90;;;;;;4442906;32;20167;-68
2022/01/10 05:29:22;;;;;;;0.60;0.47;;;4.90;99.90;;;;;;4443371;32;20072;-68
2022/01/10 05:31:49;;;;;;;7.57;1.98;;;4.80;99.90;;;;;;4443193;32;20456;-68
2022/01/10 05:34:14;;;;;;;0.57;0.57;;;4.90;99.90;;;;;;4444501;32;20133;-68
2022/01/10 05:36:40;;;;;;;0.40;0.40;;;4.90;99.90;;;;;;4441720;32;20069;-68
2022/01/10 05:39:07;;;;;;;0.68;0.68;;;4.90;99.90;;;;;;4443020;32;20080;-68
2022/01/10 05:41:33;;;;;;;0.88;0.88;;;5.00;99.90;;;;;;4441919;32;20124;-68
2022/01/10 05:43:59;;;;;;;0.50;0.50;;;4.90;99.90;;;;;;4444411;32;20468;-68
2022/01/10 05:46:25;;;;;;;6.97;1.10;;;4.90;99.90;;;;;;4438172;32;20173;-68
2022/01/10 05:48:53;;;;;;;0.40;0.40;;;4.90;99.90;;;;;;4442929;32;20934;-68
2022/01/10 05:51:20;;;;;;;0.50;0.50;;;4.90;99.90;;;;;;4443958;32;20081;-68
2022/01/10 05:53:46;;;;;;;1.67;0.90;;;4.90;99.90;;;;;;4443189;32;20674;-68
2022/01/10 05:56:11;;;;;;;0.40;0.40;;;4.90;99.90;;;;;;4437796;32;20066;-69
2022/01/10 05:58:37;;;;;;;2.72;1.40;;;4.90;99.90;;;;;;4443512;32;20091;-68
2022/01/10 06:01:04;;;;;;;0.50;0.50;;;4.90;99.90;;;;;;4437242;32;20077;-68
2022/01/10 06:03:29;;;;;;;0.45;0.45;;;4.90;99.90;;;;;;4432893;32;20109;-68
2022/01/10 06:05:55;;;;;;;0.62;0.62;;;4.90;99.90;;;;;;4438256;32;20081;-69
2022/01/10 06:08:21;;;;;;;0.47;0.47;;;4.90;99.90;;;;;;4439782;32;20497;-68
2022/01/10 06:10:46;;;;;;;0.60;0.60;;;4.90;99.90;;;;;;4443445;32;20123;-68
2022/01/10 06:13:12;;;;;;;3.10;1.10;;;4.90;99.90;;;;;;4442540;32;20068;-68
2022/01/10 06:15:41;;;;;;;3.03;1.08;;;4.80;99.90;;;;;;4439398;32;20100;-68
2022/01/10 06:18:06;;;;;;;1.02;0.65;;;4.80;99.90;;;;;;4425762;32;20137;-68
2022/01/10 06:20:32;;;;;;;0.40;0.40;;;4.90;99.90;;;;;;4442045;32;20116;-67
2022/01/10 06:22:57;;;;;;;0.50;0.50;;;4.90;99.90;;;;;;4440409;32;20584;-68
2022/01/10 06:25:25;;;;;;;1.35;0.85;;;4.90;99.90;;;;;;4437631;32;20101;-68
2022/01/10 06:27:51;;;;;;;0.40;0.40;;;5.00;99.90;;;;;;4427433;32;20076;-67
2022/01/10 06:30:16;;;;;;;0.82;0.82;;;5.10;99.90;;;;;;4429692;32;20101;-67
2022/01/10 06:32:42;;;;;;;0.32;0.32;;;4.90;99.90;;;;;;4422022;32;20186;-67
2022/01/10 06:35:11;;;;;;;0.60;0.60;;;4.90;99.90;;;;;;4432752;32;20077;-68
2022/01/10 06:37:39;;;;;;;1.00;0.77;;;5.00;99.90;;;;;;4433345;32;20104;-68
2022/01/10 06:40:07;;;;;;;0.40;0.40;;;5.00;99.90;;;;;;4437955;32;20073;-69
2022/01/10 06:42:33;;;;;;;1.35;1.02;;;5.00;99.90;;;;;;4437720;32;20145;-68
2022/01/10 06:44:59;;;;;;;0.50;0.50;;;5.00;99.90;;;;;;4433494;32;20096;-68
2022/01/10 06:47:24;;;;;;;0.50;0.50;;;5.00;99.90;;;;;;4435152;32;20068;-68
2022/01/10 06:49:50;;;;;;;0.43;0.43;;;5.10;99.90;;;;;;4436139;32;20644;-69
2022/01/10 06:52:16;;;;;;;0.40;0.40;;;5.10;99.90;;;;;;4437444;32;20295;-69
2022/01/10 06:54:42;;;;;;;1.40;0.70;;;5.10;99.90;;;;;;4428724;32;20101;-69
2022/01/10 06:57:07;;;;;;;2.08;0.60;;;5.10;99.90;;;;;;4431616;32;20544;-69
2022/01/10 06:59:34;;;;;;;0.37;0.37;;;5.10;99.90;;;;;;4431870;32;20081;-69
2022/01/10 07:02:00;;;;;;;0.50;0.50;;;5.00;99.90;;;;;;4430419;32;20117;-67
2022/01/10 07:04:26;;;;;;;0.60;0.55;;;5.10;99.90;;;;;;4432151;32;20089;-68
2022/01/10 07:06:53;;;;;;;0.30;0.30;;;5.10;99.90;;;;;;4430203;32;20069;-68
2022/01/10 07:09:19;;;;;;;23.58;1.70;;;5.10;99.90;;;;;;4426823;32;21000;-68
2022/01/10 07:11:45;;;;;;;0.70;0.70;;;5.10;99.90;;;;;;4431036;32;20153;-68
2022/01/10 07:14:13;;;;;;;1.25;0.95;;;5.10;99.90;;;;;;4427890;32;20098;-67
2022/01/10 07:16:39;;;;;;;0.85;0.80;;;5.10;99.90;;;;;;4430850;32;20619;-69
2022/01/10 07:19:06;;;;;;;0.62;0.62;;;5.10;99.90;;;;;;4427149;32;20142;-68
2022/01/10 07:21:32;;;;;;;4.45;1.85;;;5.10;99.90;;;;;;4426605;32;20170;-69
2022/01/10 07:23:58;;;;;;;0.30;0.30;;;5.10;99.90;;;;;;4426653;32;20197;-69
2022/01/10 07:26:23;;;;;;;1.65;1.05;;;5.10;99.90;;;;;;4423460;32;20128;-69
2022/01/10 07:28:49;;;;;;;1.55;0.62;;;5.10;99.90;;;;;;4429056;32;20500;-69
2022/01/10 07:31:14;;;;;;;0.50;0.50;;;5.10;99.90;;;;;;4427665;32;20085;-69
2022/01/10 07:33:40;;;;;;;0.40;0.40;;;5.10;99.90;;;;;;4423214;32;20086;-70
2022/01/10 07:36:06;;;;;;;1.25;0.68;;;5.10;99.90;;;;;;4425949;32;20130;-69
2022/01/10 07:38:35;;;;;;;0.52;0.47;;;5.10;99.90;;;;;;4423567;32;20113;-69
2022/01/10 07:41:03;;;;;;;0.25;0.25;;;5.00;99.90;;;;;;4426652;32;20080;-68
2022/01/10 07:43:29;;;;;;;1.50;1.05;;;5.10;99.90;;;;;;4424544;32;20258;-70
2022/01/10 07:45:54;;;;;;;0.40;0.40;;;5.00;99.90;;;;;;4429778;32;20077;-70
2022/01/10 07:48:20;;;;;;;0.37;0.37;;;5.10;99.90;;;;;;4425599;32;20557;-69
2022/01/10 07:50:46;;;;;;;9.95;0.95;;;5.10;99.90;;;;;;4426151;32;20669;-69
2022/01/10 07:53:11;;;;;;;1.45;0.80;;;5.10;99.90;;;;;;4431332;32;20096;-69
2022/01/10 07:55:37;;;;;;;0.40;0.40;;;5.00;99.90;;;;;;4431071;32;20665;-69
2022/01/10 07:58:02;;;;;;;0.50;0.50;;;5.00;99.90;;;;;;4429037;32;20132;-70
2022/01/10 08:00:28;;;;;;;2.28;0.95;;;5.10;99.90;;;;;;4429692;32;20073;-68
2022/01/10 08:02:54;;;;;;;1.08;0.98;;;5.10;99.90;;;;;;4431136;32;20109;-69
2022/01/10 08:05:20;;;;;;;13.98;0.98;;;5.10;99.90;;;;;;4431238;32;20492;-68
2022/01/10 08:07:45;;;;;;;2.00;1.05;;;5.10;99.90;;;;;;4433830;32;20568;-68
2022/01/10 08:10:11;;;;;;;1.75;0.73;;;5.10;99.90;;;;;;4429671;32;20088;-70
2022/01/10 08:12:37;;;;;;;0.50;0.50;;;5.10;99.90;;;;;;4429685;32;20081;-69
2022/01/10 08:15:03;;;;;;;0.50;0.50;;;5.10;99.90;;;;;;4423881;32;20081;-69
2022/01/10 08:17:28;;;;;;;3.53;0.82;;;5.10;99.90;;;;;;4422640;32;20092;-70
2022/01/10 08:19:54;;;;;;;0.77;0.60;;;5.10;99.90;;;;;;4424608;32;20185;-71
2022/01/10 08:22:19;;;;;;;1.48;0.88;;;5.10;99.90;;;;;;4426736;32;20450;-70
2022/01/10 08:24:45;;;;;;;2.15;0.57;;;5.20;99.90;;;;;;4427810;32;20081;-69
2022/01/10 08:27:10;;;;;;;0.70;0.70;;;5.20;99.90;;;;;;4424280;32;20480;-70
2022/01/10 08:29:36;;;;;;;0.50;0.50;;;5.20;99.90;;;;;;4425278;32;20080;-69
2022/01/10 08:32:02;;;;;;;0.30;0.30;;;5.20;99.90;;;;;;4420073;32;20198;-69
2022/01/10 08:34:27;;;;;;;0.40;0.40;;;5.20;99.90;;;;;;4422671;32;20457;-69
2022/01/10 08:36:54;;;;;;;15.90;1.60;;;5.20;99.90;;;;;;4421470;32;20123;-69
2022/01/10 08:39:21;;;;;;;3.58;1.12;;;5.20;99.90;;;;;;4416071;32;20092;-68
2022/01/10 08:41:46;;;;;;;0.90;0.68;;;5.20;99.90;;;;;;4422809;32;20186;-70
2022/01/10 08:44:14;;;;;;;0.60;0.60;;;5.30;99.90;;;;;;4426922;32;20097;-68
2022/01/10 08:46:40;;;;;;;2.92;1.95;;;5.30;99.90;;;;;;4426617;32;20086;-70
2022/01/10 08:49:06;;;;;;;2.55;0.93;;;5.40;99.90;;;;;;4421383;32;20084;-68
2022/01/10 08:51:33;;;;;;;1.92;1.15;;;5.50;99.90;;;;;;4415541;32;20096;-69
2022/01/10 08:53:59;;;;;;;3.20;1.98;;;5.50;99.90;;;;;;4415973;32;20081;-69
2022/01/10 08:56:24;;;;;;;3.30;1.00;;;5.40;99.90;;;;;;4413547;32;20283;-68
2022/01/10 08:58:50;;;;;;;0.95;0.88;;;5.40;99.90;;;;;;4415936;32;20096;-68
2022/01/10 09:01:15;;;;;;;0.57;0.50;;;5.50;99.90;;;;;;4418075;32;20202;-69
2022/01/10 09:03:41;;;;;;;1.05;1.05;;;5.50;99.90;;;;;;4421741;32;20081;-67
2022/01/10 09:06:08;;;;;;;2.17;0.85;;;5.60;99.90;;;;;;4419197;32;20084;-68
2022/01/10 09:08:38;;;;;;;0.30;0.30;;;5.60;99.90;;;;;;4414109;32;20575;-67
2022/01/10 09:11:07;;;;;;;1.20;1.05;;;5.60;99.90;;;;;;4409878;32;20097;-69
2022/01/10 09:13:33;;;;;;;1.05;0.82;;;5.60;99.90;;;;;;4411615;32;21005;-69
2022/01/10 09:16:01;;;;;;;1.65;0.75;;;5.60;99.90;;;;;;4419570;32;20166;-69
2022/01/10 09:18:29;;;;;;;3.42;1.75;;;5.70;99.90;;;;;;4412567;32;20101;-69
2022/01/10 09:20:57;;;;;;;0.50;0.50;;;5.60;99.90;;;;;;4414957;32;20226;-69
2022/01/10 09:23:23;;;;;;;6.30;0.80;;;5.70;99.90;;;;;;4411072;32;20582;-70
2022/01/10 09:25:49;;;;;;;0.50;0.50;;;5.60;99.90;;;;;;4418582;32;20150;-70
2022/01/10 09:28:17;;;;;;;0.60;0.60;;;5.60;99.90;;;;;;4410398;32;20093;-68
2022/01/10 09:30:42;;;;;;;2.12;0.88;;;5.70;99.90;;;;;;4408316;32;20088;-70
2022/01/10 09:33:08;;;;;;;6.00;1.30;;;5.60;99.90;;;;;;4415419;32;20139;-71
2022/01/10 09:35:34;;;;;;;0.68;0.68;;;5.60;99.90;;;;;;4419588;32;20102;-69
2022/01/10 09:38:00;;;;;;;5.93;0.93;;;5.60;99.90;;;;;;4414936;32;20510;-70
2022/01/10 09:40:25;;;;;;;6.32;1.15;;;5.70;99.90;;;;;;4420281;32;20096;-72
2022/01/10 09:42:51;;;;;;;0.55;0.55;;;5.80;99.90;;;;;;4414309;32;20165;-69
2022/01/10 09:45:17;;;;;;;0.52;0.52;;;5.80;99.90;;;;;;4408004;32;20123;-69
2022/01/10 09:47:43;;;;;;;0.93;0.70;;;5.80;99.90;;;;;;4410241;32;20516;-70
2022/01/10 09:50:10;;;;;;;0.88;0.88;;;5.80;99.90;;;;;;4414703;32;20101;-70
2022/01/10 09:52:37;;;;;;;1.00;0.77;;;5.80;99.90;;;;;;4420962;32;20282;-70
2022/01/10 09:55:03;;;;;;;4.12;1.12;;;5.80;99.90;;;;;;4417084;32;20661;-69
2022/01/10 09:57:28;;;;;;;3.70;0.85;;;5.90;99.90;;;;;;4419626;32;20091;-68
2022/01/10 09:59:54;;;;;;;3.15;1.55;;;5.90;99.90;;;;;;4415072;32;20113;-68
2022/01/10 10:02:20;;;;;;;0.30;0.30;;;5.90;99.90;;;;;;4415162;32;20117;-68
2022/01/10 10:04:46;;;;;;;0.60;0.60;;;6.00;99.90;;;;;;4406829;32;20081;-68
2022/01/10 10:07:13;;;;;;;0.50;0.50;;;6.00;99.90;;;;;;4419200;32;20209;-68
2022/01/10 10:09:41;;;;;;;0.85;0.85;;;6.00;99.90;;;;;;4416938;32;20691;-69
2022/01/10 10:12:07;;;;;;;1.55;0.93;;;6.10;99.90;;;;;;4408417;32;20512;-67
2022/01/10 10:14:33;;;;;;;0.40;0.40;;;6.10;99.90;;;;;;4404775;32;20109;-70
2022/01/10 10:17:06;;;;;;;1.35;1.15;;;6.10;99.90;;;;;;4415170;32;20105;-69
2022/01/10 10:19:32;;;;;;;3.70;0.82;;;6.00;99.90;;;;;;4414623;32;20209;-71
2022/01/10 10:21:59;;;;;;;3.37;1.12;;;6.00;99.90;;;;;;4406977;32;20093;-69
2022/01/10 10:24:25;;;;;;;0.80;0.60;;;6.10;99.90;;;;;;4405128;32;20952;-69
2022/01/10 10:26:52;;;;;;;6.82;1.75;;;6.10;99.90;;;;;;4410693;32;20088;-68
2022/01/10 10:29:19;;;;;;;0.35;0.35;;;6.10;99.90;;;;;;4414641;32;20105;-69
2022/01/10 10:31:49;;;;;;;0.50;0.50;;;6.10;99.90;;;;;;4412034;32;20248;-69
2022/01/10 10:34:19;;;;;;;7.43;1.30;;;6.10;99.90;;;;;;4401214;32;20109;-69
2022/01/10 10:36:46;;;;;;;0.68;0.68;;;6.20;99.90;;;;;;4405470;32;20115;-69
2022/01/10 10:39:13;;;;;;;1.58;1.00;;;6.00;99.90;;;;;;4412815;32;20603;-70
2022/01/10 10:41:42;;;;;;;9.45;0.68;;;6.10;99.90;;;;;;4414002;32;20137;-70
2022/01/10 10:44:07;;;;;;;0.50;0.50;;;6.10;99.90;;;;;;4409462;32;20235;-70
2022/01/10 10:46:33;;;;;;;6.22;0.62;;;6.10;99.90;;;;;;4405183;32;20125;-70
2022/01/10 10:49:03;;;;;;;0.62;0.60;;;6.10;99.90;;;;;;4402418;32;20112;-70
2022/01/10 10:51:31;;;;;;;0.32;0.32;;;6.10;99.90;;;;;;4409571;32;20089;-70
2022/01/10 10:54:09;;;;;;;0.37;0.37;;;6.10;99.90;;;;;;4403543;32;20227;-69
2022/01/10 10:56:38;;;;;;;0.40;0.40;;;6.00;99.90;;;;;;4409305;32;20101;-70
2022/01/10 10:59:07;;;;;;;1.95;0.75;;;6.00;99.90;;;;;;4406636;32;20187;-71
2022/01/10 11:01:36;;;;;;;0.40;0.40;;;6.10;99.90;;;;;;4406007;32;20151;-71
2022/01/10 11:04:03;;;;;;;0.80;0.80;;;6.10;99.90;;;;;;4406183;32;20170;-71
2022/01/10 11:06:30;;;;;;;0.60;0.60;;;6.20;99.90;;;;;;4405495;32;20492;-70
2022/01/10 11:08:58;;;;;;;0.40;0.40;;;6.20;99.90;;;;;;4410955;32;20148;-70
2022/01/10 11:11:23;;;;;;;0.40;0.40;;;6.20;99.90;;;;;;4415583;32;20556;-70
2022/01/10 11:13:51;;;;;;;1.20;0.88;;;6.30;99.90;;;;;;4414723;32;21750;-69
2022/01/10 11:16:17;;;;;;;0.82;0.55;;;6.30;99.90;;;;;;4413589;32;20394;-70
2022/01/10 11:18:44;;;;;;;1.65;1.02;;;6.30;99.90;;;;;;4419256;32;20073;-70
2022/01/10 11:21:11;;;;;;;0.95;0.70;;;6.30;99.90;;;;;;4422394;32;20085;-70
2022/01/10 11:23:41;;;;;;;0.32;0.32;;;6.30;99.90;;;;;;4425592;32;20200;-70
2022/01/10 11:26:08;;;;;;;25.88;1.42;;;6.40;99.90;;;;;;4421759;32;20093;-69
2022/01/10 11:28:33;;;;;;;0.50;0.50;;;6.40;99.90;;;;;;4420807;32;20189;-70
2022/01/10 11:31:02;;;;;;;0.30;0.30;;;6.40;99.90;;;;;;4419305;32;20100;-71
2022/01/10 11:33:32;;;;;;;2.62;1.25;;;6.40;99.90;;;;;;4417945;32;20106;-67
2022/01/10 11:36:01;;;;;;;0.60;0.60;;;6.30;99.90;;;;;;4412019;32;20113;-68
2022/01/10 11:38:38;;;;;;;0.30;0.30;;;6.30;99.90;;;;;;4414534;32;20501;-70
2022/01/10 11:41:16;;;;;;;0.82;0.82;;;6.30;99.90;;;;;;4418027;32;20778;-69
2022/01/10 11:43:49;;;;;;;1.60;0.82;;;6.40;99.90;;;;;;4413933;32;20387;-69
2022/01/10 11:46:19;;;;;;;6.05;2.30;;;6.40;99.90;;;;;;4414620;32;20101;-68
2022/01/10 11:48:55;;;;;;;0.30;0.30;;;6.40;99.90;;;;;;4418700;32;20078;-69
2022/01/10 11:51:23;;;;;;;0.50;0.50;;;6.40;99.90;;;;;;4421832;32;20579;-67
2022/01/10 11:53:52;;;;;;;0.73;0.73;;;6.40;99.90;;;;;;4414173;32;20092;-69
2022/01/10 11:56:25;;;;;;;0.32;0.32;;;6.40;99.90;;;;;;4417082;32;20109;-69
2022/01/10 11:59:08;;;;;;;1.30;1.12;;;6.40;99.90;;;;;;4411257;32;20084;-69
2022/01/10 12:01:35;;;;;;;2.78;0.60;;;6.40;99.90;;;;;;4416560;32;20583;-69
2022/01/10 12:04:02;;;;;;;0.30;0.30;;;6.40;99.90;;;;;;4415001;32;20082;-69
2022/01/10 12:06:27;;;;;;;2.55;1.33;;;6.40;99.90;;;;;;4415725;32;20089;-70
2022/01/10 12:08:55;;;;;;;0.47;0.47;;;6.40;99.90;;;;;;4411712;32;20470;-70
2022/01/10 12:11:24;;;;;;;0.40;0.40;;;6.40;99.90;;;;;;4410589;32;20146;-70
2022/01/10 12:13:52;;;;;;;0.30;0.30;;;6.40;99.90;;;;;;4410334;32;20643;-69
2022/01/10 12:16:17;;;;;;;0.50;0.50;;;6.30;99.90;;;;;;4411338;32;20442;-70
2022/01/10 12:18:43;;;;;;;0.30;0.30;;;6.30;99.90;;;;;;4417977;32;20525;-68
2022/01/10 12:21:08;;;;;;;0.60;0.60;;;6.20;99.90;;;;;;4420989;32;20414;-68
2022/01/10 12:23:34;;;;;;;0.55;0.55;;;6.30;99.90;;;;;;4417613;32;20081;-70
2022/01/10 12:25:59;;;;;;;0.30;0.30;;;6.40;99.90;;;;;;4419572;32;20450;-69
2022/01/10 12:28:27;;;;;;;0.60;0.45;;;6.40;99.90;;;;;;4418776;32;20060;-69
2022/01/10 12:30:54;;;;;;;1.15;1.00;;;6.40;99.90;;;;;;4417509;32;20096;-69
2022/01/10 12:33:20;;;;;;;6.90;1.95;;;6.50;99.90;;;;;;4422287;32;20114;-69
2022/01/10 12:35:45;;;;;;;0.37;0.37;;;6.50;99.90;;;;;;4422630;32;20174;-70
2022/01/10 12:38:11;;;;;;;0.40;0.40;;;6.40;99.90;;;;;;4421905;32;20093;-69
2022/01/10 12:40:37;;;;;;;1.08;0.73;;;6.40;99.90;;;;;;4424989;32;20534;-70
2022/01/10 12:43:03;;;;;;;0.77;0.77;;;6.50;99.90;;;;;;4422709;32;20114;-70
2022/01/10 12:45:33;;;;;;;13.52;0.65;;;6.40;99.90;;;;;;4420149;32;20081;-70
2022/01/10 12:47:59;;;;;;;1.83;0.90;;;6.50;99.90;;;;;;4416586;32;20069;-70
2022/01/10 12:50:25;;;;;;;3.92;0.95;;;6.50;99.90;;;;;;4422196;32;20170;-70
2022/01/10 12:52:53;;;;;;;4.47;1.23;;;6.50;99.90;;;;;;4419195;32;20085;-68
2022/01/10 12:55:19;;;;;;;0.40;0.40;;;6.50;99.90;;;;;;4418576;32;20136;-69
2022/01/10 12:57:49;;;;;;;0.98;0.57;;;6.40;99.90;;;;;;4422158;32;20077;-69